createdAt,value
2022-10-30T00:01:09.137Z,16.69
2022-10-30T00:03:36.083Z,16.66
2022-10-30T00:06:08.594Z,16.62
2022-10-30T00:08:35.817Z,16.57
2022-10-30T00:11:12.158Z,16.56
2022-10-30T00:13:39.671Z,16.54
2022-10-30T00:16:08.635Z,16.50
2022-10-30T00:18:38.437Z,16.50
2022-10-30T00:21:14.894Z,16.46
2022-10-30T00:23:53.623Z,16.44
2022-10-30T00:26:23.220Z,16.48
2022-10-30T00:28:55.573Z,16.43
2022-10-30T00:31:23.187Z,16.47
2022-10-30T00:33:54.557Z,16.45
2022-10-30T00:36:22.593Z,16.50
2022-10-30T00:38:49.809Z,16.47
2022-10-30T00:41:20.266Z,16.52
2022-10-30T00:43:47.710Z,16.51
2022-10-30T00:46:39.454Z,16.50
2022-10-30T00:49:19.734Z,16.55
2022-10-30T00:51:54.620Z,16.56
2022-10-30T00:54:23.652Z,16.60
2022-10-30T00:56:51.929Z,16.61
2022-10-30T00:59:27.869Z,16.57
2022-10-30T01:01:55.500Z,16.54
2022-10-30T01:04:28.923Z,16.48
2022-10-30T01:06:58.653Z,16.44
2022-10-30T01:09:25.667Z,16.54
2022-10-30T01:11:52.605Z,16.43
2022-10-30T01:14:21.289Z,16.35
2022-10-30T01:17:16.129Z,16.41
2022-10-30T01:19:53.416Z,16.36
2022-10-30T01:22:39.959Z,16.32
2022-10-30T01:25:36.590Z,16.44
2022-10-30T01:28:27.257Z,16.38
2022-10-30T01:31:14.217Z,16.33
2022-10-30T01:33:55.800Z,16.35
2022-10-30T01:36:57.378Z,16.19
2022-10-30T01:39:33.066Z,16.12
2022-10-30T01:42:00.049Z,16.08
2022-10-30T01:44:33.102Z,16.03
2022-10-30T01:47:34.643Z,16.00
2022-10-30T01:50:19.268Z,15.96
2022-10-30T01:53:20.081Z,15.99
2022-10-30T01:56:22.049Z,16.08
2022-10-30T01:59:16.873Z,16.07
2022-10-30T02:01:44.346Z,16.14
2022-10-30T02:04:13.307Z,16.13
2022-10-30T02:06:41.188Z,16.14
2022-10-30T02:09:08.307Z,16.15
2022-10-30T02:11:37.540Z,16.18
2022-10-30T02:14:09.679Z,16.17
2022-10-30T02:16:44.940Z,16.10
2022-10-30T02:19:11.903Z,16.08
2022-10-30T02:21:39.056Z,16.06
2022-10-30T02:24:06.646Z,16.02
2022-10-30T02:26:33.629Z,15.96
2022-10-30T02:29:00.675Z,15.89
2022-10-30T02:31:27.648Z,15.83
2022-10-30T02:33:54.611Z,15.80
2022-10-30T02:36:21.595Z,15.71
2022-10-30T02:38:48.628Z,15.66
2022-10-30T02:41:15.545Z,15.66
2022-10-30T02:43:42.535Z,15.66
2022-10-30T02:46:09.481Z,15.65
2022-10-30T02:48:36.469Z,15.63
2022-10-30T02:51:05.118Z,15.61
2022-10-30T02:53:33.836Z,15.62
2022-10-30T02:56:05.984Z,15.57
2022-10-30T02:58:33.238Z,15.55
2022-10-30T03:01:16.627Z,15.55
2022-10-30T03:03:44.735Z,15.55
2022-10-30T03:06:15.623Z,15.61
2022-10-30T03:08:43.849Z,15.65
2022-10-30T03:11:15.202Z,15.54
2022-10-30T03:13:44.519Z,15.50
2022-10-30T03:16:15.581Z,15.49
2022-10-30T03:18:42.761Z,15.41
2022-10-30T03:21:17.468Z,15.37
2022-10-30T03:23:44.447Z,15.33
2022-10-30T03:26:11.604Z,15.25
2022-10-30T03:28:38.609Z,15.23
2022-10-30T03:31:09.435Z,15.25
2022-10-30T03:33:37.913Z,15.23
2022-10-30T03:36:07.363Z,15.22
2022-10-30T03:38:34.788Z,15.23
2022-10-30T03:41:01.899Z,15.22
2022-10-30T03:43:29.053Z,15.21
2022-10-30T03:45:57.248Z,15.19
2022-10-30T03:48:27.185Z,15.13
2022-10-30T03:50:58.205Z,15.12
2022-10-30T03:53:26.878Z,15.12
2022-10-30T03:55:58.369Z,15.07
2022-10-30T03:58:25.600Z,15.09
2022-10-30T04:00:52.652Z,15.15
2022-10-30T04:03:19.823Z,15.14
2022-10-30T04:05:46.781Z,15.17
2022-10-30T04:08:14.607Z,15.21
2022-10-30T04:10:47.161Z,15.15
2022-10-30T04:13:17.477Z,15.14
2022-10-30T04:15:44.534Z,15.11
2022-10-30T04:18:12.957Z,15.06
2022-10-30T04:20:40.064Z,15.04
2022-10-30T04:23:10.598Z,15.00
2022-10-30T04:25:37.576Z,15.09
2022-10-30T04:28:04.945Z,15.06
2022-10-30T04:30:36.877Z,15.01
2022-10-30T04:33:07.532Z,14.99
2022-10-30T04:35:39.489Z,14.98
2022-10-30T04:38:12.050Z,15.02
2022-10-30T04:40:41.793Z,15.04
2022-10-30T04:43:10.460Z,15.03
2022-10-30T04:45:38.743Z,15.04
2022-10-30T04:48:11.187Z,15.00
2022-10-30T04:50:38.998Z,14.93
2022-10-30T04:53:15.394Z,14.91
2022-10-30T04:55:44.167Z,14.88
2022-10-30T04:58:12.211Z,14.85
2022-10-30T05:00:39.267Z,14.83
2022-10-30T05:03:06.324Z,14.80
2022-10-30T05:05:33.595Z,14.76
2022-10-30T05:08:01.034Z,14.79
2022-10-30T05:10:28.221Z,14.80
2022-10-30T05:12:55.247Z,14.76
2022-10-30T05:15:22.336Z,14.71
2022-10-30T05:17:56.294Z,14.76
2022-10-30T05:20:23.648Z,14.80
2022-10-30T05:22:58.574Z,14.83
2022-10-30T05:25:27.271Z,14.86
2022-10-30T05:28:03.037Z,14.87
2022-10-30T05:30:32.064Z,14.77
2022-10-30T05:33:01.097Z,14.69
2022-10-30T05:35:29.638Z,14.62
2022-10-30T05:37:56.806Z,14.60
2022-10-30T05:40:23.772Z,14.55
2022-10-30T05:42:50.861Z,14.53
2022-10-30T05:45:18.641Z,14.51
2022-10-30T05:47:59.531Z,14.61
2022-10-30T05:50:28.453Z,14.66
2022-10-30T05:53:04.271Z,14.73
2022-10-30T05:55:31.795Z,14.73
2022-10-30T05:58:01.527Z,14.73
2022-10-30T06:00:31.426Z,14.69
2022-10-30T06:03:08.289Z,14.52
2022-10-30T06:05:37.696Z,14.52
2022-10-30T06:08:06.625Z,14.50
2022-10-30T06:10:34.045Z,14.43
2022-10-30T06:13:04.642Z,14.45
2022-10-30T06:15:33.474Z,14.41
2022-10-30T06:18:01.259Z,14.48
2022-10-30T06:20:32.032Z,14.48
2022-10-30T06:23:06.135Z,14.53
2022-10-30T06:25:40.622Z,14.59
2022-10-30T06:28:11.182Z,14.60
2022-10-30T06:30:38.158Z,14.62
2022-10-30T06:33:06.193Z,14.61
2022-10-30T06:35:33.413Z,14.39
2022-10-30T06:38:00.603Z,14.38
2022-10-30T06:40:30.170Z,14.38
2022-10-30T06:42:58.453Z,14.37
2022-10-30T06:45:26.324Z,14.36
2022-10-30T06:47:53.289Z,14.41
2022-10-30T06:50:22.117Z,14.40
2022-10-30T06:52:49.569Z,14.37
2022-10-30T06:55:17.928Z,14.44
2022-10-30T06:57:44.917Z,14.45
2022-10-30T07:00:13.156Z,14.48
2022-10-30T07:02:40.158Z,14.49
2022-10-30T07:05:07.496Z,14.48
2022-10-30T07:07:34.491Z,14.49
2022-10-30T07:10:03.958Z,14.49
2022-10-30T07:12:30.888Z,14.45
2022-10-30T07:14:57.907Z,14.43
2022-10-30T07:17:24.877Z,14.40
2022-10-30T07:19:51.817Z,14.49
2022-10-30T07:22:18.971Z,14.51
2022-10-30T07:24:45.921Z,14.50
2022-10-30T07:27:12.877Z,14.55
2022-10-30T07:29:39.829Z,14.57
2022-10-30T07:32:06.805Z,14.63
2022-10-30T07:34:34.444Z,14.64
2022-10-30T07:37:01.381Z,14.67
2022-10-30T07:39:28.404Z,14.74
2022-10-30T07:41:55.689Z,14.83
2022-10-30T07:44:22.965Z,14.88
2022-10-30T07:46:50.100Z,14.95
2022-10-30T07:49:17.115Z,15.01
2022-10-30T07:51:44.165Z,15.03
2022-10-30T07:54:11.122Z,15.05
2022-10-30T07:56:38.128Z,15.10
2022-10-30T07:59:05.983Z,15.14
2022-10-30T08:01:33.111Z,15.21
2022-10-30T08:04:00.187Z,15.27
2022-10-30T08:06:27.465Z,15.35
2022-10-30T08:08:54.578Z,15.43
2022-10-30T08:11:21.550Z,15.55
2022-10-30T08:13:48.536Z,15.62
2022-10-30T08:16:17.308Z,15.70
2022-10-30T08:18:44.469Z,15.79
2022-10-30T08:21:11.706Z,15.79
2022-10-30T08:23:38.646Z,15.87
2022-10-30T08:26:05.828Z,15.94
2022-10-30T08:28:33.482Z,16.03
2022-10-30T08:31:02.369Z,16.03
2022-10-30T08:33:29.490Z,16.06
2022-10-30T08:35:58.885Z,16.14
2022-10-30T08:38:27.581Z,16.19
2022-10-30T08:40:54.929Z,16.24
2022-10-30T08:43:22.715Z,16.25
2022-10-30T08:45:49.725Z,16.28
2022-10-30T08:48:16.888Z,16.33
2022-10-30T08:50:44.960Z,16.43
2022-10-30T08:53:15.477Z,16.46
2022-10-30T08:55:43.470Z,16.57
2022-10-30T08:58:10.509Z,16.57
2022-10-30T09:00:38.111Z,16.58
2022-10-30T09:03:05.232Z,16.62
2022-10-30T09:05:32.252Z,16.67
2022-10-30T09:08:01.451Z,16.70
2022-10-30T09:10:30.063Z,16.77
2022-10-30T09:12:58.904Z,16.84
2022-10-30T09:15:26.782Z,16.89
2022-10-30T09:18:02.446Z,16.93
2022-10-30T09:20:30.626Z,17.02
2022-10-30T09:22:58.148Z,17.14
2022-10-30T09:25:25.546Z,17.20
2022-10-30T09:27:52.489Z,17.23
2022-10-30T09:30:19.562Z,17.30
2022-10-30T09:32:49.928Z,17.42
2022-10-30T09:35:19.504Z,17.47
2022-10-30T09:37:46.434Z,17.57
2022-10-30T09:40:57.760Z,17.70
2022-10-30T09:43:55.491Z,17.75
2022-10-30T09:47:02.009Z,17.84
2022-10-30T09:49:46.739Z,17.90
2022-10-30T09:52:26.536Z,17.98
2022-10-30T09:55:18.337Z,17.98
2022-10-30T09:58:19.009Z,18.05
2022-10-30T10:01:27.661Z,18.09
2022-10-30T10:04:26.485Z,18.15
2022-10-30T10:07:07.181Z,18.29
2022-10-30T10:09:37.935Z,18.42
2022-10-30T10:12:25.364Z,18.55
2022-10-30T10:14:54.276Z,18.58
2022-10-30T10:17:33.673Z,18.65
2022-10-30T10:20:05.029Z,18.65
2022-10-30T10:23:11.688Z,18.84
2022-10-30T10:25:41.532Z,18.86
2022-10-30T10:28:26.293Z,18.99
2022-10-30T10:31:13.235Z,19.03
2022-10-30T10:34:00.677Z,19.07
2022-10-30T10:36:55.704Z,19.13
2022-10-30T10:40:10.577Z,19.25
2022-10-30T10:43:29.669Z,19.26
2022-10-30T10:46:45.637Z,19.42
2022-10-30T10:49:31.579Z,19.48
2022-10-30T10:52:09.342Z,19.62
2022-10-30T10:54:59.549Z,19.62
2022-10-30T10:57:40.457Z,19.65
2022-10-30T11:00:23.241Z,19.62
2022-10-30T11:06:30.019Z,19.79
2022-10-30T11:09:24.467Z,19.81
2022-10-30T11:11:55.497Z,19.84
2022-10-30T11:14:25.203Z,19.81
2022-10-30T11:17:13.531Z,19.83
2022-10-30T11:19:40.549Z,19.92
2022-10-30T11:22:25.901Z,19.95
2022-10-30T11:24:53.031Z,19.98
2022-10-30T11:27:28.628Z,20.00
2022-10-30T11:30:05.740Z,20.02
2022-10-30T11:32:35.002Z,20.05
2022-10-30T11:35:07.954Z,20.00
2022-10-30T11:37:38.263Z,20.01
2022-10-30T11:40:11.415Z,20.01
2022-10-30T11:42:44.366Z,20.04
2022-10-30T11:45:26.950Z,20.07
2022-10-30T11:48:01.062Z,20.12
2022-10-30T11:50:32.346Z,20.14
2022-10-30T11:53:17.829Z,20.10
2022-10-30T11:55:49.632Z,20.14
2022-10-30T11:58:38.512Z,20.17
2022-10-30T12:01:27.423Z,20.25
2022-10-30T12:03:56.244Z,20.23
2022-10-30T12:06:23.080Z,20.31
2022-10-30T12:09:20.989Z,20.28
2022-10-30T12:11:48.863Z,20.30
2022-10-30T12:14:21.051Z,20.31
2022-10-30T12:16:53.147Z,20.33
2022-10-30T12:19:23.479Z,20.36
2022-10-30T12:21:58.258Z,20.36
2022-10-30T12:24:32.869Z,20.38
2022-10-30T12:27:11.698Z,20.46
2022-10-30T12:30:18.506Z,20.43
2022-10-30T12:33:15.396Z,20.42
2022-10-30T12:36:33.552Z,20.52
2022-10-30T12:39:24.271Z,20.46
2022-10-30T12:42:12.409Z,20.47
2022-10-30T12:45:31.310Z,20.49
2022-10-30T12:48:16.636Z,20.49
2022-10-30T12:51:07.993Z,20.56
2022-10-30T12:53:48.685Z,20.55
2022-10-30T12:56:24.876Z,20.62
2022-10-30T12:59:20.001Z,20.63
2022-10-30T13:01:55.845Z,20.69
2022-10-30T13:04:36.450Z,20.68
2022-10-30T13:07:39.008Z,20.60
2022-10-30T13:10:38.258Z,20.65
2022-10-30T13:13:15.699Z,20.70
2022-10-30T13:15:55.996Z,20.65
2022-10-30T13:18:30.127Z,20.64
2022-10-30T13:21:11.879Z,20.63
2022-10-30T13:24:03.578Z,20.72
2022-10-30T13:26:56.288Z,20.72
2022-10-30T13:29:33.946Z,20.76
2022-10-30T13:32:41.397Z,20.74
2022-10-30T13:35:24.664Z,20.81
2022-10-30T13:38:25.812Z,20.83
2022-10-30T13:40:58.246Z,20.89
2022-10-30T13:43:39.970Z,20.88
2022-10-30T13:46:31.426Z,20.88
2022-10-30T13:49:39.358Z,20.89
2022-10-30T13:52:19.865Z,20.85
2022-10-30T13:55:19.353Z,20.80
2022-10-30T13:57:57.768Z,20.86
2022-10-30T14:00:58.673Z,20.91
2022-10-30T14:03:43.595Z,20.87
2022-10-30T14:06:54.319Z,20.92
2022-10-30T14:10:16.011Z,20.93
2022-10-30T14:12:58.006Z,20.91
2022-10-30T14:15:27.926Z,20.87
2022-10-30T14:18:12.881Z,20.87
2022-10-30T14:20:51.143Z,20.92
2022-10-30T14:23:37.520Z,20.93
2022-10-30T14:26:04.449Z,20.89
2022-10-30T14:28:34.336Z,20.89
2022-10-30T14:31:18.236Z,20.90
2022-10-30T14:33:51.741Z,20.93
2022-10-30T14:36:38.938Z,20.93
2022-10-30T14:39:12.117Z,20.87
2022-10-30T14:42:16.386Z,20.83
2022-10-30T14:45:17.045Z,20.78
2022-10-30T14:48:00.651Z,20.71
2022-10-30T14:50:27.601Z,20.72
2022-10-30T14:53:49.045Z,20.61
2022-10-30T14:56:38.902Z,20.52
2022-10-30T14:59:13.265Z,20.51
2022-10-30T15:02:10.419Z,20.42
2022-10-30T15:05:15.273Z,20.39
2022-10-30T15:07:54.050Z,20.29
2022-10-30T15:10:26.460Z,20.35
2022-10-30T15:13:22.205Z,20.31
2022-10-30T15:16:06.569Z,20.22
2022-10-30T15:18:33.936Z,20.19
2022-10-30T15:21:07.120Z,20.16
2022-10-30T15:23:37.117Z,20.12
2022-10-30T15:26:19.364Z,20.03
2022-10-30T15:28:51.620Z,19.92
2022-10-30T15:31:18.451Z,19.85
2022-10-30T15:33:45.716Z,19.78
2022-10-30T15:36:21.251Z,19.65
2022-10-30T15:39:09.231Z,19.47
2022-10-30T15:42:01.684Z,19.47
2022-10-30T15:44:36.469Z,19.47
2022-10-30T15:47:12.437Z,19.50
2022-10-30T15:49:46.702Z,19.41
2022-10-30T15:52:41.090Z,19.22
2022-10-30T15:55:14.304Z,19.15
2022-10-30T15:58:07.113Z,19.12
2022-10-30T16:00:37.894Z,19.14
2022-10-30T16:03:13.889Z,19.19
2022-10-30T16:05:40.924Z,19.12
2022-10-30T16:08:19.731Z,19.01
2022-10-30T16:10:47.382Z,18.93
2022-10-30T16:13:21.891Z,18.98
2022-10-30T16:15:50.235Z,18.93
2022-10-30T16:18:31.010Z,18.90
2022-10-30T16:21:04.432Z,18.94
2022-10-30T16:23:40.447Z,18.89
2022-10-30T16:26:07.825Z,18.86
2022-10-30T16:28:37.983Z,18.82
2022-10-30T16:31:16.037Z,18.80
2022-10-30T16:33:46.329Z,18.74
2022-10-30T16:36:18.228Z,18.72
2022-10-30T16:38:48.683Z,18.66
2022-10-30T16:41:16.295Z,18.57
2022-10-30T16:44:04.488Z,18.45
2022-10-30T16:46:39.790Z,18.44
2022-10-30T16:49:19.053Z,18.42
2022-10-30T16:51:47.177Z,18.37
2022-10-30T16:54:38.081Z,18.20
2022-10-30T16:57:22.970Z,18.29
2022-10-30T16:59:52.887Z,18.27
2022-10-30T17:02:23.365Z,18.18
2022-10-30T17:04:58.157Z,18.12
2022-10-30T17:07:26.969Z,18.03
2022-10-30T17:09:56.938Z,17.95
2022-10-30T17:12:29.436Z,18.03
2022-10-30T17:15:12.615Z,18.03
2022-10-30T17:17:41.935Z,17.97
2022-10-30T17:20:22.758Z,17.89
2022-10-30T17:23:13.546Z,17.90
2022-10-30T17:25:41.010Z,17.87
2022-10-30T17:28:27.839Z,17.85
2022-10-30T17:30:55.426Z,17.76
2022-10-30T17:33:37.677Z,17.71
2022-10-30T17:36:06.398Z,17.66
2022-10-30T17:38:33.703Z,17.59
2022-10-30T17:41:01.482Z,17.53
2022-10-30T17:43:33.367Z,17.46
2022-10-30T17:46:00.642Z,17.43
2022-10-30T17:48:29.727Z,17.39
2022-10-30T17:50:56.867Z,17.34
2022-10-30T17:53:25.886Z,17.35
2022-10-30T17:56:26.160Z,17.30
2022-10-30T17:58:54.522Z,17.27
2022-10-30T18:01:25.988Z,17.22
2022-10-30T18:03:55.337Z,17.25
2022-10-30T18:06:26.699Z,17.24
2022-10-30T18:08:54.618Z,17.19
2022-10-30T18:11:24.210Z,17.15
2022-10-30T18:13:52.755Z,17.11
2022-10-30T18:16:20.334Z,17.15
2022-10-30T18:18:47.473Z,17.17
2022-10-30T18:21:21.644Z,17.16
2022-10-30T18:23:53.678Z,17.14
2022-10-30T18:26:26.545Z,17.11
2022-10-30T18:28:54.156Z,17.07
2022-10-30T18:31:24.018Z,17.07
2022-10-30T18:33:51.826Z,17.11
2022-10-30T18:36:22.476Z,17.09
2022-10-30T18:38:49.999Z,17.10
2022-10-30T18:41:32.057Z,17.09
2022-10-30T18:44:00.574Z,17.04
2022-10-30T18:46:29.501Z,16.98
2022-10-30T18:48:56.569Z,17.02
2022-10-30T18:51:28.353Z,16.93
2022-10-30T18:53:57.034Z,16.94
2022-10-30T18:56:30.122Z,16.93
2022-10-30T18:59:02.010Z,16.90
2022-10-30T19:01:32.132Z,16.80
2022-10-30T19:04:03.861Z,16.77
2022-10-30T19:06:32.876Z,16.79
2022-10-30T19:09:01.300Z,16.69
2022-10-30T19:11:30.856Z,16.69
2022-10-30T19:13:59.032Z,16.70
2022-10-30T19:16:26.221Z,16.64
2022-10-30T19:18:53.403Z,16.65
2022-10-30T19:21:25.444Z,16.66
2022-10-30T19:23:53.935Z,16.64
2022-10-30T19:26:21.055Z,16.63
2022-10-30T19:28:48.255Z,16.66
2022-10-30T19:31:18.619Z,16.60
2022-10-30T19:33:48.163Z,16.56
2022-10-30T19:36:34.056Z,16.61
2022-10-30T19:39:08.513Z,16.63
2022-10-30T19:41:36.981Z,16.60
2022-10-30T19:44:04.865Z,16.55
2022-10-30T19:46:32.233Z,16.56
2022-10-30T19:49:00.306Z,16.53
2022-10-30T19:51:29.795Z,16.46
2022-10-30T19:53:56.880Z,16.41
2022-10-30T19:56:24.135Z,16.38
2022-10-30T19:58:53.018Z,16.30
2022-10-30T20:01:20.320Z,16.23
2022-10-30T20:03:47.703Z,16.21
2022-10-30T20:06:15.211Z,16.20
2022-10-30T20:08:42.762Z,16.17
2022-10-30T20:11:09.942Z,16.14
2022-10-30T20:13:37.405Z,16.14
2022-10-30T20:16:06.376Z,16.20
2022-10-30T20:18:35.923Z,16.22
2022-10-30T20:21:11.019Z,16.18
2022-10-30T20:23:38.098Z,16.09
2022-10-30T20:26:25.568Z,16.04
2022-10-30T20:28:53.637Z,16.03
2022-10-30T20:31:21.071Z,16.10
2022-10-30T20:33:48.057Z,16.10
2022-10-30T20:36:15.507Z,16.07
2022-10-30T20:38:42.691Z,16.04
2022-10-30T20:41:28.160Z,15.99
2022-10-30T20:43:55.308Z,15.94
2022-10-30T20:46:24.750Z,15.92
2022-10-30T20:48:51.825Z,15.88
2022-10-30T20:51:18.896Z,15.88
2022-10-30T20:53:46.100Z,15.83
2022-10-30T20:56:13.260Z,15.79
2022-10-30T20:58:42.418Z,15.74
2022-10-30T21:01:10.861Z,15.72
2022-10-30T21:03:38.036Z,15.67
2022-10-30T21:06:10.584Z,15.61
2022-10-30T21:08:37.858Z,15.60
2022-10-30T21:11:07.824Z,15.57
2022-10-30T21:13:36.520Z,15.56
2022-10-30T21:16:08.525Z,15.56
2022-10-30T21:18:35.912Z,15.50
2022-10-30T21:21:06.882Z,15.46
2022-10-30T21:23:34.211Z,15.44
2022-10-30T21:26:06.473Z,15.45
2022-10-30T21:28:34.005Z,15.41
2022-10-30T21:31:02.520Z,15.50
2022-10-30T21:33:37.571Z,15.47
2022-10-30T21:36:16.785Z,15.44
2022-10-30T21:38:44.726Z,15.38
2022-10-30T21:41:22.326Z,15.37
2022-10-30T21:43:55.734Z,15.37
2022-10-30T21:46:26.133Z,15.38
2022-10-30T21:48:53.439Z,15.34
2022-10-30T21:51:26.526Z,15.37
2022-10-30T21:53:56.107Z,15.39
2022-10-30T21:56:26.964Z,15.35
2022-10-30T21:59:00.280Z,15.34
2022-10-30T22:01:30.335Z,15.31
2022-10-30T22:04:00.171Z,15.32
2022-10-30T22:06:27.826Z,15.25
2022-10-30T22:08:56.919Z,15.22
2022-10-30T22:11:27.528Z,15.22
2022-10-30T22:13:56.041Z,15.19
2022-10-30T22:16:24.454Z,15.16
2022-10-30T22:18:51.933Z,15.04
2022-10-30T22:21:19.121Z,15.12
2022-10-30T22:23:46.245Z,15.14
2022-10-30T22:26:20.226Z,15.17
2022-10-30T22:28:47.826Z,15.18
2022-10-30T22:31:18.153Z,15.19
2022-10-30T22:33:46.104Z,15.12
2022-10-30T22:36:20.880Z,15.09
2022-10-30T22:38:53.263Z,15.13
2022-10-30T22:41:27.114Z,15.08
2022-10-30T22:43:56.146Z,15.05
2022-10-30T22:46:26.570Z,15.01
2022-10-30T22:48:53.973Z,15.07
2022-10-30T22:51:21.998Z,15.05
2022-10-30T22:54:00.130Z,15.05
2022-10-30T22:56:30.604Z,15.02
2022-10-30T22:59:00.236Z,15.02
2022-10-30T23:01:30.515Z,14.98
2022-10-30T23:04:00.171Z,14.98
2022-10-30T23:06:29.143Z,14.97
2022-10-30T23:08:59.404Z,14.91
2022-10-30T23:11:28.255Z,14.85
2022-10-30T23:13:55.779Z,14.78
2022-10-30T23:16:25.804Z,14.78
2022-10-30T23:18:57.089Z,14.75
2022-10-30T23:21:26.620Z,14.77
2022-10-30T23:23:54.085Z,14.75
2022-10-30T23:26:30.439Z,14.78
2022-10-30T23:28:58.629Z,14.78
2022-10-30T23:31:38.802Z,14.80
2022-10-30T23:34:12.917Z,14.78
2022-10-30T23:36:40.867Z,14.74
2022-10-30T23:39:17.924Z,14.72
2022-10-30T23:41:45.093Z,14.70
2022-10-30T23:44:15.036Z,14.66
2022-10-30T23:46:42.670Z,14.65
2022-10-30T23:49:09.629Z,14.68
2022-10-30T23:51:36.608Z,14.67
2022-10-30T23:54:03.945Z,14.64
2022-10-30T23:56:30.928Z,14.65
2022-10-30T23:58:58.700Z,14.63
